sensor_id;sensor_type;location;lat;lon;timestamp;pressure;altitude;pressure_sealevel;temperature;humidity
46614;BME280;32338;50.430;6.806;2023-11-21T00:01:06;66034.22;;;5.67;100.00
46614;BME280;32338;50.430;6.806;2023-11-21T00:03:35;66030.28;;;5.64;100.00
46614;BME280;32338;50.430;6.806;2023-11-21T00:06:02;66037.03;;;5.70;100.00
46614;BME280;32338;50.430;6.806;2023-11-21T00:08:28;66046.56;;;5.79;100.00
46614;BME280;32338;50.430;6.806;2023-11-21T00:10:55;66047.13;;;5.79;100.00
46614;BME280;32338;50.430;6.806;2023-11-21T00:13:22;66040.38;;;5.73;100.00
46614;BME280;32338;50.430;6.806;2023-11-21T00:15:48;66043.56;;;5.74;100.00
46614;BME280;32338;50.430;6.806;2023-11-21T00:18:15;66039.47;;;5.75;100.00
46614;BME280;32338;50.430;6.806;2023-11-21T00:20:43;66045.78;;;5.76;100.00
46614;BME280;32338;50.430;6.806;2023-11-21T00:23:10;66046.91;;;5.77;100.00
46614;BME280;32338;50.430;6.806;2023-11-21T00:25:37;66045.59;;;5.73;100.00
46614;BME280;32338;50.430;6.806;2023-11-21T00:28:03;66042.09;;;5.75;100.00
46614;BME280;32338;50.430;6.806;2023-11-21T00:30:31;66044.09;;;5.74;100.00
46614;BME280;32338;50.430;6.806;2023-11-21T00:32:58;66043.19;;;5.76;100.00
46614;BME280;32338;50.430;6.806;2023-11-21T00:35:25;66047.50;;;5.77;100.00
46614;BME280;32338;50.430;6.806;2023-11-21T00:37:53;66038.34;;;5.74;100.00
46614;BME280;32338;50.430;6.806;2023-11-21T00:40:19;66039.63;;;5.70;100.00
46614;BME280;32338;50.430;6.806;2023-11-21T00:42:46;66046.56;;;5.79;100.00
46614;BME280;32338;50.430;6.806;2023-11-21T00:45:13;66036.69;;;5.72;100.00
46614;BME280;32338;50.430;6.806;2023-11-21T00:47:40;66037.03;;;5.70;100.00
46614;BME280;32338;50.430;6.806;2023-11-21T00:50:07;66037.03;;;5.70;100.00
46614;BME280;32338;50.430;6.806;2023-11-21T00:52:33;66040.75;;;5.71;100.00
46614;BME280;32338;50.430;6.806;2023-11-21T00:55:02;66038.50;;;5.69;100.00
46614;BME280;32338;50.430;6.806;2023-11-21T00:57:29;66036.44;;;5.69;100.00
46614;BME280;32338;50.430;6.806;2023-11-21T00:59:56;66035.91;;;5.69;100.00
46614;BME280;32338;50.430;6.806;2023-11-21T01:02:22;66036.25;;;5.67;100.00
46614;BME280;32338;50.430;6.806;2023-11-21T01:04:49;66035.91;;;5.69;100.00
46614;BME280;32338;50.430;6.806;2023-11-21T01:07:15;66035.34;;;5.68;100.00
46614;BME280;32338;50.430;6.806;2023-11-21T01:09:42;66046.72;;;5.74;100.00
46614;BME280;32338;50.430;6.806;2023-11-21T01:12:10;66044.31;;;5.77;100.00
46614;BME280;32338;50.430;6.806;2023-11-21T01:14:37;66037.44;;;5.75;100.00
46614;BME280;32338;50.430;6.806;2023-11-21T01:17:04;66046.50;;;5.72;100.00
46614;BME280;32338;50.430;6.806;2023-11-21T01:19:31;66045.22;;;5.75;100.00
46614;BME280;32338;50.430;6.806;2023-11-21T01:21:58;66042.09;;;5.75;100.00
46614;BME280;32338;50.430;6.806;2023-11-21T01:24:24;66038.72;;;5.72;100.00
46614;BME280;32338;50.430;6.806;2023-11-21T01:26:51;66034.44;;;5.70;100.00
46614;BME280;32338;50.430;6.806;2023-11-21T01:29:19;66046.16;;;5.74;100.00
46614;BME280;32338;50.430;6.806;2023-11-21T01:31:45;66040.19;;;5.71;100.00
46614;BME280;32338;50.430;6.806;2023-11-21T01:34:12;66041.88;;;5.72;100.00
46614;BME280;32338;50.430;6.806;2023-11-21T01:36:39;66045.22;;;5.75;100.00
46614;BME280;32338;50.430;6.806;2023-11-21T01:39:06;66043.19;;;5.76;100.00
46614;BME280;32338;50.430;6.806;2023-11-21T01:41:33;66039.84;;;5.73;100.00
46614;BME280;32338;50.430;6.806;2023-11-21T01:44:00;66037.75;;;5.66;100.00
46614;BME280;32338;50.430;6.806;2023-11-21T01:46:28;66035.91;;;5.69;100.00
46614;BME280;32338;50.430;6.806;2023-11-21T01:48:55;66033.09;;;5.66;100.00
46614;BME280;32338;50.430;6.806;2023-11-21T01:51:22;66040.38;;;5.73;100.00
46614;BME280;32338;50.430;6.806;2023-11-21T01:53:49;66049.50;;;5.77;100.00
46614;BME280;32338;50.430;6.806;2023-11-21T01:56:16;66048.38;;;5.76;100.00
46614;BME280;32338;50.430;6.806;2023-11-21T01:58:43;66049.16;;;5.79;100.00
46614;BME280;32338;50.430;6.806;2023-11-21T02:01:12;66054.03;;;5.81;100.00
46614;BME280;32338;50.430;6.806;2023-11-21T02:03:41;66042.44;;;5.73;100.00
46614;BME280;32338;50.430;6.806;2023-11-21T02:06:07;66048.97;;;5.76;100.00
46614;BME280;32338;50.430;6.806;2023-11-21T02:08:34;66042.44;;;5.73;100.00
46614;BME280;32338;50.430;6.806;2023-11-21T02:11:03;66041.09;;;5.69;100.00
46614;BME280;32338;50.430;6.806;2023-11-21T02:13:29;66031.97;;;5.65;100.00
46614;BME280;32338;50.430;6.806;2023-11-21T02:15:56;66034.44;;;5.70;100.00
46614;BME280;32338;50.430;6.806;2023-11-21T02:18:23;66039.06;;;5.69;100.00
46614;BME280;32338;50.430;6.806;2023-11-21T02:20:51;66041.88;;;5.72;100.00
46614;BME280;32338;50.430;6.806;2023-11-21T02:23:19;66037.03;;;5.70;100.00
46614;BME280;32338;50.430;6.806;2023-11-21T02:25:45;66043.91;;;5.72;100.00
46614;BME280;32338;50.430;6.806;2023-11-21T02:28:13;66047.84;;;5.75;100.00
46614;BME280;32338;50.430;6.806;2023-11-21T02:30:41;66041.66;;;5.69;100.00
46614;BME280;32338;50.430;6.806;2023-11-21T02:33:08;66027.50;;;5.61;100.00
46614;BME280;32338;50.430;6.806;2023-11-21T02:35:35;66023.56;;;5.58;100.00
46614;BME280;32338;50.430;6.806;2023-11-21T02:38:03;66034.22;;;5.67;100.00
46614;BME280;32338;50.430;6.806;2023-11-21T02:40:31;66029.94;;;5.66;100.00
46614;BME280;32338;50.430;6.806;2023-11-21T02:42:57;66041.66;;;5.69;100.00
46614;BME280;32338;50.430;6.806;2023-11-21T02:45:24;66040.75;;;5.71;100.00
46614;BME280;32338;50.430;6.806;2023-11-21T02:51:13;66038.84;;;5.67;100.00
46614;BME280;32338;50.430;6.806;2023-11-21T02:53:41;66031.56;;;5.60;100.00
46614;BME280;32338;50.430;6.806;2023-11-21T02:56:09;66033.66;;;5.67;100.00
46614;BME280;32338;50.430;6.806;2023-11-21T02:58:35;66035.16;;;5.66;100.00
46614;BME280;32338;50.430;6.806;2023-11-21T03:01:02;66036.03;;;5.64;100.00
46614;BME280;32338;50.430;6.806;2023-11-21T03:03:30;66028.97;;;5.60;100.00
46614;BME280;32338;50.430;6.806;2023-11-21T03:05:57;66026.16;;;5.58;100.00
46614;BME280;32338;50.430;6.806;2023-11-21T03:08:23;66020.41;;;5.57;100.00
46614;BME280;32338;50.430;6.806;2023-11-21T03:10:50;66028.41;;;5.60;100.00
46614;BME280;32338;50.430;6.806;2023-11-21T03:13:18;66024.69;;;5.59;100.00
46614;BME280;32338;50.430;6.806;2023-11-21T03:15:45;66028.41;;;5.60;100.00
46614;BME280;32338;50.430;6.806;2023-11-21T03:18:12;66026.38;;;5.60;100.00
46614;BME280;32338;50.430;6.806;2023-11-21T03:20:39;66028.22;;;5.57;100.00
46614;BME280;32338;50.430;6.806;2023-11-21T03:23:06;66034.03;;;5.65;100.00
46614;BME280;32338;50.430;6.806;2023-11-21T03:25:33;66026.72;;;5.58;100.00
46614;BME280;32338;50.430;6.806;2023-11-21T03:28:00;66023.56;;;5.58;100.00
46614;BME280;32338;50.430;6.806;2023-11-21T03:30:28;66017.97;;;5.52;100.00
46614;BME280;32338;50.430;6.806;2023-11-21T03:32:54;66017.25;;;5.57;100.00
46614;BME280;32338;50.430;6.806;2023-11-21T03:35:21;66023.91;;;5.56;100.00
46614;BME280;32338;50.430;6.806;2023-11-21T03:37:47;66023.16;;;5.52;100.00
46614;BME280;32338;50.430;6.806;2023-11-21T03:40:14;66024.06;;;5.51;100.00
46614;BME280;32338;50.430;6.806;2023-11-21T03:42:40;66024.84;;;5.54;100.00
46614;BME280;32338;50.430;6.806;2023-11-21T03:45:08;66019.63;;;5.54;100.00
46614;BME280;32338;50.430;6.806;2023-11-21T03:47:36;66023.00;;;5.57;100.00
46614;BME280;32338;50.430;6.806;2023-11-21T03:50:03;66027.28;;;5.59;100.00
46614;BME280;32338;50.430;6.806;2023-11-21T03:52:30;66020.22;;;5.55;100.00
46614;BME280;32338;50.430;6.806;2023-11-21T03:54:56;66026.72;;;5.58;100.00
46614;BME280;32338;50.430;6.806;2023-11-21T03:57:23;66022.81;;;5.55;100.00
46614;BME280;32338;50.430;6.806;2023-11-21T03:59:49;66019.63;;;5.54;100.00
46614;BME280;32338;50.430;6.806;2023-11-21T04:02:16;66015.00;;;5.55;100.00
46614;BME280;32338;50.430;6.806;2023-11-21T04:04:44;66019.44;;;5.51;100.00
46614;BME280;32338;50.430;6.806;2023-11-21T04:07:11;66015.69;;;5.50;100.00
46614;BME280;32338;50.430;6.806;2023-11-21T04:09:38;66018.31;;;5.50;100.00
46614;BME280;32338;50.430;6.806;2023-11-21T04:12:07;66018.31;;;5.50;100.00
46614;BME280;32338;50.430;6.806;2023-11-21T04:14:34;66015.50;;;5.48;100.00
46614;BME280;32338;50.430;6.806;2023-11-21T04:17:00;66014.03;;;5.49;100.00
46614;BME280;32338;50.430;6.806;2023-11-21T04:19:29;66014.94;;;5.47;100.00
46614;BME280;32338;50.430;6.806;2023-11-21T04:21:57;66009.34;;;5.42;100.00
46614;BME280;32338;50.430;6.806;2023-11-21T04:24:24;66002.81;;;5.39;100.00
46614;BME280;32338;50.430;6.806;2023-11-21T04:26:51;66009.34;;;5.42;100.00
46614;BME280;32338;50.430;6.806;2023-11-21T04:29:17;66013.47;;;5.48;100.00
46614;BME280;32338;50.430;6.806;2023-11-21T04:31:44;66020.34;;;5.50;100.00
46614;BME280;32338;50.430;6.806;2023-11-21T04:34:11;66011.56;;;5.44;100.00
46614;BME280;32338;50.430;6.806;2023-11-21T04:36:38;66019.22;;;5.49;100.00
46614;BME280;32338;50.430;6.806;2023-11-21T04:39:06;66021.69;;;5.54;100.00
46614;BME280;32338;50.430;6.806;2023-11-21T04:41:34;66015.31;;;5.45;100.00
46614;BME280;32338;50.430;6.806;2023-11-21T04:44:01;66006.53;;;5.40;100.00
46614;BME280;32338;50.430;6.806;2023-11-21T04:46:28;66003.94;;;5.40;100.00
46614;BME280;32338;50.430;6.806;2023-11-21T04:48:54;66002.25;;;5.38;100.00
46614;BME280;32338;50.430;6.806;2023-11-21T04:51:21;66011.94;;;5.42;100.00
46614;BME280;32338;50.430;6.806;2023-11-21T04:53:51;66010.25;;;5.41;100.00
46614;BME280;32338;50.430;6.806;2023-11-21T04:56:19;66006.16;;;5.42;100.00
46614;BME280;32338;50.430;6.806;2023-11-21T04:58:45;66009.13;;;5.40;100.00
46614;BME280;32338;50.430;6.806;2023-11-21T05:01:12;66009.34;;;5.42;100.00
46614;BME280;32338;50.430;6.806;2023-11-21T05:03:38;66011.38;;;5.42;100.00
46614;BME280;32338;50.430;6.806;2023-11-21T05:06:06;66002.25;;;5.38;100.00
46614;BME280;32338;50.430;6.806;2023-11-21T05:08:32;66006.88;;;5.38;100.00
46614;BME280;32338;50.430;6.806;2023-11-21T05:10:59;66005.03;;;5.41;100.00
46614;BME280;32338;50.430;6.806;2023-11-21T05:13:27;66006.34;;;5.37;100.00
46614;BME280;32338;50.430;6.806;2023-11-21T05:15:54;65996.63;;;5.33;100.00
46614;BME280;32338;50.430;6.806;2023-11-21T05:18:20;65997.75;;;5.34;100.00
46614;BME280;32338;50.430;6.806;2023-11-21T05:20:47;66007.44;;;5.38;100.00
46614;BME280;32338;50.430;6.806;2023-11-21T05:23:14;66000.38;;;5.34;100.00
46614;BME280;32338;50.430;6.806;2023-11-21T05:25:40;65993.84;;;5.30;100.00
46614;BME280;32338;50.430;6.806;2023-11-21T05:28:07;65996.09;;;5.32;100.00
46614;BME280;32338;50.430;6.806;2023-11-21T05:30:35;65997.75;;;5.34;100.00
46614;BME280;32338;50.430;6.806;2023-11-21T05:33:03;66001.50;;;5.35;100.00
46614;BME280;32338;50.430;6.806;2023-11-21T05:35:30;65999.81;;;5.33;100.00
46614;BME280;32338;50.430;6.806;2023-11-21T05:37:56;65997.56;;;5.31;100.00
46614;BME280;32338;50.430;6.806;2023-11-21T05:40:23;65997.91;;;5.29;100.00
46614;BME280;32338;50.430;6.806;2023-11-21T05:42:51;65993.63;;;5.28;100.00
46614;BME280;32338;50.430;6.806;2023-11-21T05:45:18;65990.81;;;5.25;100.00
46614;BME280;32338;50.430;6.806;2023-11-21T05:47:46;65991.59;;;5.28;100.00
46614;BME280;32338;50.430;6.806;2023-11-21T05:50:15;65988.78;;;5.26;100.00
46614;BME280;32338;50.430;6.806;2023-11-21T05:52:43;65990.47;;;5.27;100.00
46614;BME280;32338;50.430;6.806;2023-11-21T05:55:10;65990.28;;;5.25;100.00
46614;BME280;32338;50.430;6.806;2023-11-21T05:57:39;65992.88;;;5.25;100.00
46614;BME280;32338;50.430;6.806;2023-11-21T06:00:08;65987.31;;;5.27;100.00
46614;BME280;32338;50.430;6.806;2023-11-21T06:02:46;65991.38;;;5.26;100.00
46614;BME280;32338;50.430;6.806;2023-11-21T06:05:16;65993.63;;;5.28;100.00
46614;BME280;32338;50.430;6.806;2023-11-21T06:07:44;65995.50;;;5.32;100.00
46614;BME280;32338;50.430;6.806;2023-11-21T06:10:11;66004.09;;;5.35;100.00
46614;BME280;32338;50.430;6.806;2023-11-21T06:12:40;65991.44;;;5.33;100.00
46614;BME280;32338;50.430;6.806;2023-11-21T06:15:09;65991.03;;;5.28;100.00
46614;BME280;32338;50.430;6.806;2023-11-21T06:17:40;65983.75;;;5.21;100.00
46614;BME280;32338;50.430;6.806;2023-11-21T06:20:09;65985.56;;;5.18;100.00
46614;BME280;32338;50.430;6.806;2023-11-21T06:22:40;65984.31;;;5.22;100.00
46614;BME280;32338;50.430;6.806;2023-11-21T06:25:08;65986.91;;;5.22;100.00
46614;BME280;32338;50.430;6.806;2023-11-21T06:27:38;65990.63;;;5.23;100.00
46614;BME280;32338;50.430;6.806;2023-11-21T06:30:05;65984.88;;;5.22;100.00
46614;BME280;32338;50.430;6.806;2023-11-21T06:32:34;65986.34;;;5.21;100.00
46614;BME280;32338;50.430;6.806;2023-11-21T06:35:01;65987.25;;;5.19;100.00
46614;BME280;32338;50.430;6.806;2023-11-21T06:37:31;65979.44;;;5.19;100.00
46614;BME280;32338;50.430;6.806;2023-11-21T06:39:58;65976.84;;;5.19;100.00
46614;BME280;32338;50.430;6.806;2023-11-21T06:42:25;65979.44;;;5.19;100.00
46614;BME280;32338;50.430;6.806;2023-11-21T06:44:52;65986.91;;;5.22;100.00
46614;BME280;32338;50.430;6.806;2023-11-21T06:47:19;65981.16;;;5.21;100.00
46614;BME280;32338;50.430;6.806;2023-11-21T06:49:46;65984.09;;;5.19;100.00
46614;BME280;32338;50.430;6.806;2023-11-21T06:52:14;65980.94;;;5.18;100.00
46614;BME280;32338;50.430;6.806;2023-11-21T06:54:42;65977.44;;;5.20;100.00
46614;BME280;32338;50.430;6.806;2023-11-21T06:57:08;65984.09;;;5.19;100.00
46614;BME280;32338;50.430;6.806;2023-11-21T06:59:35;65986.91;;;5.22;100.00
46614;BME280;32338;50.430;6.806;2023-11-21T07:02:02;65987.47;;;5.22;100.00
46614;BME280;32338;50.430;6.806;2023-11-21T07:04:30;65987.81;;;5.20;100.00
46614;BME280;32338;50.430;6.806;2023-11-21T07:06:56;65982.41;;;5.17;100.00
46614;BME280;32338;50.430;6.806;2023-11-21T07:09:23;65978.16;;;5.16;100.00
46614;BME280;32338;50.430;6.806;2023-11-21T07:11:52;65979.63;;;5.15;100.00
46614;BME280;32338;50.430;6.806;2023-11-21T07:14:19;65975.91;;;5.14;100.00
46614;BME280;32338;50.430;6.806;2023-11-21T07:16:46;65967.13;;;5.08;100.00
46614;BME280;32338;50.430;6.806;2023-11-21T07:19:13;65969.72;;;5.08;100.00
46614;BME280;32338;50.430;6.806;2023-11-21T07:21:40;65973.81;;;5.07;100.00
46614;BME280;32338;50.430;6.806;2023-11-21T07:24:08;65977.38;;;5.13;100.00
46614;BME280;32338;50.430;6.806;2023-11-21T07:26:35;65981.66;;;5.14;100.00
46614;BME280;32338;50.430;6.806;2023-11-21T07:29:02;65983.13;;;5.13;100.00
46614;BME280;32338;50.430;6.806;2023-11-21T07:31:29;65977.94;;;5.13;100.00
46614;BME280;32338;50.430;6.806;2023-11-21T07:33:56;65979.25;;;5.17;100.00
46614;BME280;32338;50.430;6.806;2023-11-21T07:36:24;65980.94;;;5.18;100.00
46614;BME280;32338;50.430;6.806;2023-11-21T07:38:50;65985.56;;;5.18;100.00
46614;BME280;32338;50.430;6.806;2023-11-21T07:41:18;65983.75;;;5.21;100.00
46614;BME280;32338;50.430;6.806;2023-11-21T07:43:45;65987.09;;;5.24;100.00
46614;BME280;32338;50.430;6.806;2023-11-21T07:46:13;65996.03;;;5.25;100.00
46614;BME280;32338;50.430;6.806;2023-11-21T07:48:41;65990.28;;;5.25;100.00
46614;BME280;32338;50.430;6.806;2023-11-21T07:51:08;65991.19;;;5.23;100.00
46614;BME280;32338;50.430;6.806;2023-11-21T07:53:35;65991.75;;;5.24;100.00
46614;BME280;32338;50.430;6.806;2023-11-21T07:56:03;65993.97;;;5.26;100.00
46614;BME280;32338;50.430;6.806;2023-11-21T07:58:29;65999.44;;;5.35;100.00
46614;BME280;32338;50.430;6.806;2023-11-21T08:00:58;66006.53;;;5.40;100.00
46614;BME280;32338;50.430;6.806;2023-11-21T08:03:26;66008.56;;;5.39;100.00
46614;BME280;32338;50.430;6.806;2023-11-21T08:05:54;66007.66;;;5.41;100.00
46614;BME280;32338;50.430;6.806;2023-11-21T08:08:21;66009.91;;;5.43;100.00
46614;BME280;32338;50.430;6.806;2023-11-21T08:10:49;66014.75;;;5.45;100.00
46614;BME280;32338;50.430;6.806;2023-11-21T08:13:21;66014.38;;;5.47;100.00
46614;BME280;32338;50.430;6.806;2023-11-21T08:15:48;66006.38;;;5.44;100.00
46614;BME280;32338;50.430;6.806;2023-11-21T08:18:15;66011.56;;;5.44;100.00
46614;BME280;32338;50.430;6.806;2023-11-21T08:20:44;66016.44;;;5.46;100.00
46614;BME280;32338;50.430;6.806;2023-11-21T08:23:13;66014.56;;;5.49;100.00
46614;BME280;32338;50.430;6.806;2023-11-21T08:25:40;66019.44;;;5.51;100.00
46614;BME280;32338;50.430;6.806;2023-11-21T08:28:07;66031.91;;;5.58;100.00
46614;BME280;32338;50.430;6.806;2023-11-21T08:30:34;66023.56;;;5.58;100.00
46614;BME280;32338;50.430;6.806;2023-11-21T08:33:00;66021.88;;;5.56;100.00
46614;BME280;32338;50.430;6.806;2023-11-21T08:35:28;66022.44;;;5.57;100.00
46614;BME280;32338;50.430;6.806;2023-11-21T08:37:56;66028.41;;;5.60;100.00
46614;BME280;32338;50.430;6.806;2023-11-21T08:40:23;66040.19;;;5.71;100.00
46614;BME280;32338;50.430;6.806;2023-11-21T08:42:50;66051.41;;;5.81;100.00
46614;BME280;32338;50.430;6.806;2023-11-21T08:45:18;66057.56;;;5.87;100.00
46614;BME280;32338;50.430;6.806;2023-11-21T08:47:44;66064.09;;;5.90;100.00
46614;BME280;32338;50.430;6.806;2023-11-21T08:50:11;66060.78;;;5.94;100.00
46614;BME280;32338;50.430;6.806;2023-11-21T08:52:38;66067.66;;;5.96;100.00
46614;BME280;32338;50.430;6.806;2023-11-21T08:55:07;66066.75;;;5.97;100.00
46614;BME280;32338;50.430;6.806;2023-11-21T08:57:34;66067.31;;;5.98;100.00
46614;BME280;32338;50.430;6.806;2023-11-21T09:00:01;66065.06;;;5.96;100.00
46614;BME280;32338;50.430;6.806;2023-11-21T09:02:28;66064.31;;;5.93;100.00
46614;BME280;32338;50.430;6.806;2023-11-21T09:04:54;66065.44;;;5.94;100.00
46614;BME280;32338;50.430;6.806;2023-11-21T09:07:21;66056.84;;;5.91;100.00
46614;BME280;32338;50.430;6.806;2023-11-21T09:09:48;66066.00;;;5.94;100.00
46614;BME280;32338;50.430;6.806;2023-11-21T09:12:16;66063.19;;;5.92;100.00
46614;BME280;32338;50.430;6.806;2023-11-21T09:14:44;66065.31;;;5.98;100.00
46614;BME280;32338;50.430;6.806;2023-11-21T09:17:11;66068.47;;;5.99;100.00
46614;BME280;32338;50.430;6.806;2023-11-21T09:19:37;66070.72;;;6.01;100.00
46614;BME280;32338;50.430;6.806;2023-11-21T09:22:04;66080.59;;;6.08;100.00
46614;BME280;32338;50.430;6.806;2023-11-21T09:24:31;66093.88;;;6.18;100.00
46614;BME280;32338;50.430;6.806;2023-11-21T09:26:58;66104.75;;;6.30;100.00
46614;BME280;32338;50.430;6.806;2023-11-21T09:29:26;66118.38;;;6.38;100.00
46614;BME280;32338;50.430;6.806;2023-11-21T09:31:53;66129.06;;;6.55;100.00
46614;BME280;32338;50.430;6.806;2023-11-21T09:34:20;66150.06;;;6.76;100.00
46614;BME280;32338;50.430;6.806;2023-11-21T09:36:47;66189.53;;;7.08;100.00
46614;BME280;32338;50.430;6.806;2023-11-21T09:39:14;66212.91;;;7.27;100.00
46614;BME280;32338;50.430;6.806;2023-11-21T09:41:43;66224.94;;;7.40;100.00
46614;BME280;32338;50.430;6.806;2023-11-21T09:44:13;66237.28;;;7.52;100.00
46614;BME280;32338;50.430;6.806;2023-11-21T09:46:42;66233.75;;;7.53;100.00
46614;BME280;32338;50.430;6.806;2023-11-21T09:49:09;66231.28;;;7.49;100.00
46614;BME280;32338;50.430;6.806;2023-11-21T09:51:39;66238.97;;;7.53;100.00
46614;BME280;32338;50.430;6.806;2023-11-21T09:54:07;66240.44;;;7.52;100.00
46614;BME280;32338;50.430;6.806;2023-11-21T09:56:35;66238.97;;;7.53;100.00
46614;BME280;32338;50.430;6.806;2023-11-21T09:59:02;66239.75;;;7.56;100.00
46614;BME280;32338;50.430;6.806;2023-11-21T10:01:32;66247.03;;;7.63;100.00
46614;BME280;32338;50.430;6.806;2023-11-21T10:04:01;66251.91;;;7.65;100.00
46614;BME280;32338;50.430;6.806;2023-11-21T10:06:28;66254.13;;;7.67;100.00
46614;BME280;32338;50.430;6.806;2023-11-21T10:08:56;66253.00;;;7.66;100.00
46614;BME280;32338;50.430;6.806;2023-11-21T10:11:24;66244.59;;;7.58;100.00
46614;BME280;32338;50.430;6.806;2023-11-21T10:13:52;66241.22;;;7.55;100.00
46614;BME280;32338;50.430;6.806;2023-11-21T10:16:20;66236.00;;;7.55;100.00
46614;BME280;32338;50.430;6.806;2023-11-21T10:18:52;66253.00;;;7.66;100.00
46614;BME280;32338;50.430;6.806;2023-11-21T10:21:21;66239.16;;;7.56;100.00
46614;BME280;32338;50.430;6.806;2023-11-21T10:23:48;66223.44;;;7.41;100.00
46614;BME280;32338;50.430;6.806;2023-11-21T10:26:14;66218.03;;;7.39;100.00
46614;BME280;32338;50.430;6.806;2023-11-21T10:28:41;66220.06;;;7.38;100.00
46614;BME280;32338;50.430;6.806;2023-11-21T10:31:08;66220.06;;;7.38;100.00
46614;BME280;32338;50.430;6.806;2023-11-21T10:33:34;66221.75;;;7.40;100.00
46614;BME280;32338;50.430;6.806;2023-11-21T10:36:01;66232.41;;;7.50;100.00
46614;BME280;32338;50.430;6.806;2023-11-21T10:38:33;66246.28;;;7.60;100.00
46614;BME280;32338;50.430;6.806;2023-11-21T10:41:02;66255.84;;;7.69;100.00
46614;BME280;32338;50.430;6.806;2023-11-21T10:43:32;66245.56;;;7.64;100.00
46614;BME280;32338;50.430;6.806;2023-11-21T10:45:59;66236.34;;;7.53;100.00
46614;BME280;32338;50.430;6.806;2023-11-21T10:48:25;66223.44;;;7.41;100.00
46614;BME280;32338;50.430;6.806;2023-11-21T10:50:52;66229.06;;;7.46;100.00
46614;BME280;32338;50.430;6.806;2023-11-21T10:53:20;66226.25;;;7.44;100.00
46614;BME280;32338;50.430;6.806;2023-11-21T10:55:48;66231.50;;;7.51;100.00
46614;BME280;32338;50.430;6.806;2023-11-21T10:58:16;66231.66;;;7.46;100.00
46614;BME280;32338;50.430;6.806;2023-11-21T11:00:43;66228.13;;;7.48;100.00
46614;BME280;32338;50.430;6.806;2023-11-21T11:03:11;66238.41;;;7.53;100.00
46614;BME280;32338;50.430;6.806;2023-11-21T11:05:40;66231.28;;;7.49;100.00
46614;BME280;32338;50.430;6.806;2023-11-21T11:08:12;66225.13;;;7.43;100.00
46614;BME280;32338;50.430;6.806;2023-11-21T11:10:44;66231.09;;;7.46;100.00
46614;BME280;32338;50.430;6.806;2023-11-21T11:13:13;66236.72;;;7.51;100.00
46614;BME280;32338;50.430;6.806;2023-11-21T11:15:41;66233.00;;;7.50;100.00
46614;BME280;32338;50.430;6.806;2023-11-21T11:18:09;66233.75;;;7.53;100.00
46614;BME280;32338;50.430;6.806;2023-11-21T11:20:39;66250.78;;;7.64;100.00
46614;BME280;32338;50.430;6.806;2023-11-21T11:23:22;66255.84;;;7.69;100.00
46614;BME280;32338;50.430;6.806;2023-11-21T11:26:06;66261.84;;;7.79;100.00
46614;BME280;32338;50.430;6.806;2023-11-21T11:28:44;66273.25;;;7.85;100.00
46614;BME280;32338;50.430;6.806;2023-11-21T11:31:19;66262.00;;;7.74;100.00
46614;BME280;32338;50.430;6.806;2023-11-21T11:33:55;66248.53;;;7.62;100.00
46614;BME280;32338;50.430;6.806;2023-11-21T11:36:27;66242.34;;;7.56;100.00
46614;BME280;32338;50.430;6.806;2023-11-21T11:38:55;66237.13;;;7.56;100.00
46614;BME280;32338;50.430;6.806;2023-11-21T11:41:25;66243.69;;;7.60;100.00
46614;BME280;32338;50.430;6.806;2023-11-21T11:43:54;66261.47;;;7.74;100.00
46614;BME280;32338;50.430;6.806;2023-11-21T11:46:21;66273.81;;;7.85;100.00
46614;BME280;32338;50.430;6.806;2023-11-21T11:49:06;66311.28;;;8.17;100.00
46614;BME280;32338;50.430;6.806;2023-11-21T11:51:33;66342.44;;;8.48;100.00
46614;BME280;32338;50.430;6.806;2023-11-21T11:54:01;66352.75;;;8.60;100.00
46614;BME280;32338;50.430;6.806;2023-11-21T11:56:30;66379.56;;;8.82;100.00
46614;BME280;32338;50.430;6.806;2023-11-21T11:59:02;66377.88;;;8.81;100.00
46614;BME280;32338;50.430;6.806;2023-11-21T12:01:31;66386.69;;;8.93;100.00
46614;BME280;32338;50.430;6.806;2023-11-21T12:04:31;66386.34;;;8.96;100.00
46614;BME280;32338;50.430;6.806;2023-11-21T12:07:04;66378.84;;;8.86;100.00
46614;BME280;32338;50.430;6.806;2023-11-21T12:09:32;66358.38;;;8.65;100.00
46614;BME280;32338;50.430;6.806;2023-11-21T12:11:59;66330.44;;;8.42;100.00
46614;BME280;32338;50.430;6.806;2023-11-21T12:14:28;66311.47;;;8.20;100.00
46614;BME280;32338;50.430;6.806;2023-11-21T12:16:55;66300.81;;;8.10;100.00
46614;BME280;32338;50.430;6.806;2023-11-21T12:19:21;66300.22;;;8.09;100.00
46614;BME280;32338;50.430;6.806;2023-11-21T12:21:49;66301.16;;;8.08;100.00
46614;BME280;32338;50.430;6.806;2023-11-21T12:24:16;66301.22;;;8.15;100.00
46614;BME280;32338;50.430;6.806;2023-11-21T12:26:43;66308.88;;;8.20;100.00
46614;BME280;32338;50.430;6.806;2023-11-21T12:29:10;66308.31;;;8.19;100.00
46614;BME280;32338;50.430;6.806;2023-11-21T12:31:38;66313.94;;;8.24;100.00
46614;BME280;32338;50.430;6.806;2023-11-21T12:34:05;66341.88;;;8.48;100.00
46614;BME280;32338;50.430;6.806;2023-11-21T12:36:32;66360.44;;;8.65;100.00
46614;BME280;32338;50.430;6.806;2023-11-21T12:39:00;66379.75;;;8.85;100.00
46614;BME280;32338;50.430;6.806;2023-11-21T12:41:27;66392.13;;;8.96;100.00
46614;BME280;32338;50.430;6.806;2023-11-21T12:43:55;66403.19;;;9.04;100.00
46614;BME280;32338;50.430;6.806;2023-11-21T12:46:22;66400.00;;;9.03;100.00
46614;BME280;32338;50.430;6.806;2023-11-21T12:48:52;66403.41;;;9.06;100.00
46614;BME280;32338;50.430;6.806;2023-11-21T12:51:19;66385.38;;;8.90;100.00
46614;BME280;32338;50.430;6.806;2023-11-21T12:53:47;66415.00;;;9.15;100.00
46614;BME280;32338;50.430;6.806;2023-11-21T12:56:14;66416.69;;;9.16;100.00
46614;BME280;32338;50.430;6.806;2023-11-21T12:58:44;66419.50;;;9.19;100.00
46614;BME280;32338;50.430;6.806;2023-11-21T13:01:13;66427.38;;;9.26;100.00
46614;BME280;32338;50.430;6.806;2023-11-21T13:03:46;66424.22;;;9.25;100.00
46614;BME280;32338;50.430;6.806;2023-11-21T13:06:15;66411.63;;;9.12;100.00